Time;durP1;ratioP1;P1;durP2;ratioP2;P2;SDS_P1;SDS_P2;PMS_P1;PMS_P2;Temp;Humidity;BMP_temperature;BMP_pressure;BME280_temperature;BME280_humidity;BME280_pressure;Samples;Min_cycle;Max_cycle;Signal;HPM_P1;HPM_P2
2022/02/04 00:03:41;;;;;;;7.57;6.85;;;;;;;30.91;57.38;100964.09;5062107;28;70091;-35
2022/02/04 00:20:39;;;;;;;8.00;7.40;;;;;;;30.88;57.38;101007.06;5068317;28;66704;-35
2022/02/04 00:25:58;;;;;;;7.95;7.45;;;;;;;30.91;57.29;101014.75;5062375;28;66433;-35
2022/02/04 00:34:06;;;;;;;8.07;7.53;;;;;;;30.90;57.71;101011.22;5081346;27;70520;-36
2022/02/04 00:39:45;;;;;;;7.60;7.07;;;;;;;30.86;57.73;101028.94;5065867;27;69680;-36
2022/02/04 00:42:16;;;;;;;7.57;7.18;;;;;;;30.87;57.90;101027.03;5059902;28;65900;-35
2022/02/04 00:44:48;;;;;;;7.78;7.38;;;;;;;30.84;57.62;101027.47;5066089;28;70092;-36
2022/02/04 00:47:45;;;;;;;8.13;7.53;;;;;;;30.86;57.70;101041.66;5078703;28;66212;-35
2022/02/04 00:50:38;;;;;;;8.77;8.05;;;;;;;30.88;57.91;101056.63;5080798;27;70009;-35
2022/02/04 00:53:18;;;;;;;8.88;8.15;;;;;;;30.89;57.56;101060.16;5060739;28;65161;-38
2022/02/04 00:56:19;;;;;;;8.80;8.18;;;;;;;30.91;57.51;101066.22;5074694;27;70052;-36
2022/02/04 01:26:36;;;;;;;8.48;7.70;;;;;;;30.90;58.04;101103.31;5047317;28;65876;-36
2022/02/04 01:29:08;;;;;;;8.30;7.75;;;;;;;30.94;57.78;101114.53;5069276;27;69583;-35
2022/02/04 01:31:39;;;;;;;7.88;7.30;;;;;;;30.90;57.94;101110.59;5061763;28;64485;-34
2022/02/04 01:34:09;;;;;;;8.38;7.68;;;;;;;30.94;57.87;101114.53;5062289;28;69577;-35
2022/02/04 01:36:40;;;;;;;8.65;7.80;;;;;;;30.93;57.46;101124.53;5059501;27;66061;-35
2022/02/04 01:39:11;;;;;;;7.53;7.13;;;;;;;30.96;57.70;101128.69;5070603;27;69581;-36
2022/02/04 01:41:41;;;;;;;7.65;7.03;;;;;;;30.96;57.93;101123.28;5071143;27;65489;-37
2022/02/04 01:44:41;;;;;;;9.02;7.45;;;;;;;30.88;57.97;101137.91;5063403;28;69115;-37
2022/02/04 01:47:13;;;;;;;7.82;7.43;;;;;;;30.75;57.44;101099.16;5061104;28;65628;-36
2022/02/04 01:49:45;;;;;;;8.07;7.47;;;;;;;30.98;57.97;101142.88;5071920;27;69497;-36
2022/02/04 01:52:16;;;;;;;;;;;;;;;30.77;58.60;101151.25;5067658;28;66179;-39
2022/02/04 01:54:46;;;;;;;8.02;7.43;;;;;;;30.98;58.00;101150.16;5063485;28;69478;-35
2022/02/04 01:57:17;;;;;;;12.93;11.65;;;;;;;31.00;58.62;101146.19;5054963;28;64901;-35
2022/02/04 01:59:47;;;;;;;12.07;11.20;;;;;;;31.00;58.27;101142.66;5071443;27;69854;-35
2022/02/04 02:02:18;;;;;;;14.60;11.55;;;;;;;30.96;58.01;101130.59;5063117;27;66399;-36
2022/02/04 02:04:48;;;;;;;10.95;9.93;;;;;;;31.00;58.27;101143.47;5069000;27;70231;-35
2022/02/04 02:35:52;;;;;;;10.70;9.90;;;;;;;31.55;57.26;101159.28;5083926;27;65834;-36
2022/02/04 02:57:27;;;;;;;10.48;9.80;;;;;;;31.71;56.67;101128.09;5082011;27;66023;-35
2022/02/04 03:02:48;;;;;;;10.63;9.73;;;;;;;31.72;56.80;101121.59;5073530;27;65737;-36
2022/02/04 03:05:19;;;;;;;11.80;10.67;;;;;;;31.58;56.79;101093.75;5081921;27;70105;-36
2022/02/04 03:07:49;;;;;;;10.38;9.55;;;;;;;31.77;56.57;101124.50;5087247;27;66162;-36
2022/02/04 03:10:20;;;;;;;10.75;9.95;;;;;;;31.78;56.42;101115.28;5083619;27;70082;-36
2022/02/04 03:12:50;;;;;;;11.20;10.18;;;;;;;31.79;56.42;101112.38;5086540;27;66641;-36
2022/02/04 03:15:22;;;;;;;9.85;9.00;;;;;;;31.78;56.33;101093.59;5084946;27;69885;-35
2022/02/04 03:18:06;;;;;;;10.30;9.50;;;;;;;31.81;56.11;101104.00;5081189;27;65945;-36
2022/02/04 03:20:46;;;;;;;11.05;10.13;;;;;;;31.84;56.24;101103.56;5068996;28;71043;-35
2022/02/04 03:23:19;;;;;;;9.93;9.23;;;;;;;31.86;56.27;101090.59;5069853;28;66208;-35
2022/02/04 03:25:54;;;;;;;9.85;9.23;;;;;;;31.85;55.83;101086.25;5075681;27;69921;-36
2022/02/04 03:28:29;;;;;;;9.20;8.50;;;;;;;31.88;56.01;101083.09;5078639;28;65533;-36
2022/02/04 03:30:59;;;;;;;10.45;9.70;;;;;;;31.90;55.63;101081.00;5094647;27;69436;-36
2022/02/04 03:33:32;;;;;;;10.00;9.20;;;;;;;31.92;55.82;101078.06;5071718;27;65816;-36
2022/02/04 03:36:02;;;;;;;10.45;9.75;;;;;;;31.91;56.00;101069.09;5070833;28;70051;-36
2022/02/04 03:38:33;;;;;;;10.77;9.88;;;;;;;31.94;55.52;101068.66;5077362;27;65160;-36
2022/02/04 03:41:05;;;;;;;10.15;9.48;;;;;;;31.89;55.66;101052.19;5072384;28;69787;-36
2022/02/04 03:43:36;;;;;;;9.65;8.95;;;;;;;31.94;55.70;101049.66;5071646;28;66119;-36
2022/02/04 03:46:06;;;;;;;9.43;8.73;;;;;;;31.96;55.60;101053.00;5069762;27;70377;-36
2022/02/04 03:48:37;;;;;;;10.55;9.60;;;;;;;31.97;55.57;101046.50;5069496;28;66249;-37
2022/02/04 03:51:08;;;;;;;9.02;8.38;;;;;;;32.00;55.57;101047.94;5072667;28;70312;-36
2022/02/04 03:53:39;;;;;;;9.52;8.93;;;;;;;31.97;55.25;101038.34;5068478;28;66479;-36
2022/02/04 03:56:10;;;;;;;9.35;8.85;;;;;;;32.03;55.32;101032.03;5068992;27;69836;-36
2022/02/04 03:58:42;;;;;;;9.80;9.00;;;;;;;32.03;55.38;101025.78;5071691;28;65705;-35
2022/02/04 04:01:12;;;;;;;10.25;9.35;;;;;;;32.04;55.26;101022.84;5068825;28;69653;-36
2022/02/04 04:03:43;;;;;;;11.02;8.70;;;;;;;32.06;55.40;101019.91;5075086;28;66470;-36
2022/02/04 04:06:16;;;;;;;9.17;8.67;;;;;;;32.07;55.08;101015.28;5073787;27;70270;-36
2022/02/04 04:08:51;;;;;;;9.65;8.95;;;;;;;32.05;55.20;101013.66;5068942;27;66635;-36
2022/02/04 04:11:22;;;;;;;9.48;8.85;;;;;;;32.09;55.07;101024.06;5065053;28;70496;-36
2022/02/04 04:13:52;;;;;;;9.82;9.10;;;;;;;32.13;55.09;101025.28;5065787;28;65830;-36
2022/02/04 04:16:23;;;;;;;8.95;8.45;;;;;;;32.16;54.83;101019.38;5074925;28;70197;-36
2022/02/04 04:18:53;;;;;;;9.32;8.82;;;;;;;32.16;55.09;101013.97;5078987;28;66749;-36
2022/02/04 04:21:24;;;;;;;9.15;8.43;;;;;;;32.10;54.65;100998.59;5072371;28;68916;-35
2022/02/04 04:23:54;;;;;;;9.43;8.77;;;;;;;32.20;54.98;101017.88;5068655;27;66163;-35
2022/02/04 04:26:25;;;;;;;9.50;9.00;;;;;;;32.16;54.37;101005.81;5071067;27;69371;-35
2022/02/04 04:28:55;;;;;;;10.05;9.25;;;;;;;32.22;54.61;101007.63;5058915;28;65858;-35
2022/02/04 04:31:26;;;;;;;9.55;8.82;;;;;;;32.23;54.60;100995.69;5074355;28;70890;-35
2022/02/04 04:33:56;;;;;;;9.88;9.27;;;;;;;32.26;54.39;101003.38;5060214;28;66285;-37
2022/02/04 04:36:28;;;;;;;9.13;8.60;;;;;;;32.25;54.25;100985.44;5059427;28;69514;-36
2022/02/04 04:39:08;;;;;;;8.23;7.80;;;;;;;32.27;54.38;100988.78;5076369;28;65941;-36
2022/02/04 04:42:07;;;;;;;9.52;8.93;;;;;;;32.28;54.71;100988.53;5060793;28;70589;-36
2022/02/04 04:45:47;;;;;;;9.20;8.57;;;;;;;32.31;54.16;100975.56;5060398;28;66396;-36
2022/02/04 05:29:24;;;;;;;9.05;8.55;;;;;;;32.55;53.61;100905.94;5065926;27;65705;-36
2022/02/04 05:31:54;;;;;;;9.02;7.93;;;;;;;32.54;53.79;100896.13;5063687;27;70897;-36
2022/02/04 05:34:24;;;;;;;8.32;7.72;;;;;;;32.54;53.73;100890.69;5071264;28;66251;-36
2022/02/04 05:37:07;;;;;;;8.73;8.13;;;;;;;32.61;53.59;100891.44;5071825;28;69293;-36
2022/02/04 05:39:44;;;;;;;8.23;7.63;;;;;;;32.62;53.67;100893.91;5067819;27;66294;-36
2022/02/04 05:42:20;;;;;;;8.30;7.53;;;;;;;32.63;53.50;100878.47;5070890;27;70018;-36
2022/02/04 05:44:58;;;;;;;8.55;7.85;;;;;;;32.66;53.66;100873.38;5068388;28;66279;-36
2022/02/04 05:47:29;;;;;;;7.88;7.47;;;;;;;32.65;53.43;100876.31;5061818;28;69596;-36
2022/02/04 05:50:14;;;;;;;8.20;7.70;;;;;;;32.67;53.34;100871.50;5059391;28;65914;-36
2022/02/04 05:53:01;;;;;;;9.15;8.55;;;;;;;32.69;53.70;100866.66;5060528;27;69487;-36
2022/02/04 05:58:37;;;;;;;8.32;7.72;;;;;;;32.72;53.31;100849.91;5081316;27;70331;-36
2022/02/04 06:01:57;;;;;;;8.50;7.80;;;;;;;32.73;53.69;100835.25;5059835;28;66065;-37
2022/02/04 06:04:18;;;;;;;7.85;7.45;;;;;;;32.76;53.40;100842.91;5077594;27;70091;-36
2022/02/04 06:12:39;;;;;;;7.75;7.30;;;;;;;32.82;53.25;100820.28;5098966;27;66029;-35
2022/02/04 06:23:36;;;;;;;7.53;7.13;;;;;;;32.87;52.88;100795.91;5078416;27;66559;-36
2022/02/04 06:26:06;;;;;;;7.95;7.45;;;;;;;32.91;53.00;100794.41;5071859;27;70106;-36
2022/02/04 06:28:38;;;;;;;7.35;6.70;;;;;;;32.94;53.00;100793.94;5099360;27;66082;-36
2022/02/04 06:31:09;;;;;;;6.68;6.28;;;;;;;32.89;52.93;100782.94;5099870;27;69637;-36
2022/02/04 06:33:40;;;;;;;7.45;7.00;;;;;;;32.99;52.66;100789.66;5099304;27;68641;-36
2022/02/04 06:36:10;;;;;;;6.93;6.53;;;;;;;33.01;52.70;100771.25;5069516;27;69552;-37
2022/02/04 06:38:41;;;;;;;7.88;7.28;;;;;;;33.02;52.68;100768.31;5066496;28;65116;-36
2022/02/04 06:41:12;;;;;;;7.38;6.80;;;;;;;33.05;52.59;100772.47;5065138;28;68867;-36
2022/02/04 06:43:42;;;;;;;7.30;6.88;;;;;;;33.07;52.60;100763.00;5067022;28;65950;-36
2022/02/04 06:46:13;;;;;;;7.28;6.80;;;;;;;33.10;52.35;100764.44;5070271;27;70555;-36
2022/02/04 06:48:49;;;;;;;7.72;7.18;;;;;;;33.15;52.42;100750.91;5073649;28;66567;-36
2022/02/04 06:51:20;;;;;;;7.88;7.13;;;;;;;33.01;52.45;100717.75;5074728;27;70175;-36
2022/02/04 06:53:55;;;;;;;6.50;6.10;;;;;;;33.19;52.11;100740.41;5069547;27;65541;-36
2022/02/04 06:56:26;;;;;;;6.90;6.50;;;;;;;33.22;52.30;100738.03;5077332;28;70412;-36
2022/02/04 06:58:56;;;;;;;6.82;6.43;;;;;;;33.25;52.37;100729.41;5071337;27;65451;-36
2022/02/04 07:01:29;;;;;;;6.35;5.95;;;;;;;33.26;52.22;100719.34;5073442;28;70955;-35
2022/02/04 07:04:05;;;;;;;7.10;6.70;;;;;;;33.31;52.13;100723.00;5068779;28;65443;-37
2022/02/04 07:06:39;;;;;;;7.47;6.25;;;;;;;33.31;52.01;100706.69;5080144;27;70304;-38
2022/02/04 07:17:14;;;;;;;6.53;6.13;;;;;;;33.47;51.73;100707.81;5057473;28;70243;-36
2022/02/04 07:19:46;;;;;;;6.40;6.00;;;;;;;33.51;51.78;100702.72;5059646;28;65338;-37
2022/02/04 07:22:19;;;;;;;7.03;5.68;;;;;;;33.54;51.54;100699.53;5071062;27;69843;-37
2022/02/04 07:24:53;;;;;;;7.35;6.10;;;;;;;33.36;51.49;100657.84;5068488;28;65305;-37
2022/02/04 07:27:24;;;;;;;7.50;5.57;;;;;;;33.58;51.24;100690.66;5068263;28;70060;-36
2022/02/04 07:29:56;;;;;;;5.70;5.40;;;;;;;33.59;51.37;100680.59;5067021;28;67257;-35
2022/02/04 07:35:30;;;;;;;5.95;5.55;;;;;;;33.67;51.58;100691.09;5066728;28;66220;-37
2022/02/04 07:40:53;;;;;;;5.45;5.15;;;;;;;33.73;50.94;100687.38;5061242;28;66518;-37
2022/02/04 07:43:27;;;;;;;5.70;5.40;;;;;;;33.76;51.11;100684.16;5061424;28;70553;-36
2022/02/04 07:45:59;;;;;;;6.57;6.07;;;;;;;33.78;51.05;100682.03;5060041;28;66298;-35
2022/02/04 07:48:30;;;;;;;5.82;5.53;;;;;;;33.81;50.80;100678.81;5060555;28;70138;-36
2022/02/04 07:51:00;;;;;;;6.43;6.03;;;;;;;33.84;50.81;100658.47;5061691;28;66065;-36
2022/02/04 07:53:31;;;;;;;6.30;6.00;;;;;;;33.86;50.86;100669.94;5060189;28;69629;-36
2022/02/04 07:56:03;;;;;;;6.28;5.70;;;;;;;33.88;50.76;100664.25;5060145;28;65912;-37
2022/02/04 07:58:34;;;;;;;6.70;6.07;;;;;;;33.88;50.75;100664.25;5060496;28;70377;-36
2022/02/04 08:01:04;;;;;;;5.53;5.22;;;;;;;33.92;50.54;100668.94;5060478;28;65731;-38
2022/02/04 08:03:41;;;;;;;6.40;6.03;;;;;;;33.92;50.45;100662.69;5058548;28;69795;-37
2022/02/04 08:06:17;;;;;;;6.43;5.90;;;;;;;33.98;50.53;100661.69;5059130;28;66235;-36
2022/02/04 08:09:01;;;;;;;5.60;5.30;;;;;;;33.98;50.42;100656.25;5060324;28;69952;-36
2022/02/04 08:11:59;;;;;;;5.70;5.40;;;;;;;34.03;50.49;100659.06;5060179;28;65107;-37
2022/02/04 08:14:59;;;;;;;5.85;5.47;;;;;;;34.08;50.69;100661.09;5061242;28;69978;-36
2022/02/04 08:34:15;;;;;;;5.97;5.57;;;;;;;34.32;49.90;100657.09;5080145;28;65848;-36
2022/02/04 08:48:06;;;;;;;6.25;5.80;;;;;;;34.49;49.75;100651.63;5079835;28;70081;-37
2022/02/04 08:50:57;;;;;;;6.30;5.80;;;;;;;34.53;49.76;100652.78;5080684;27;65919;-36
2022/02/04 08:56:04;;;;;;;10.15;5.85;;;;;;;34.60;49.90;100669.81;5077358;28;66689;-35
2022/02/04 08:58:43;;;;;;;9.48;6.15;;;;;;;34.64;49.95;100675.56;5070597;28;69359;-36
2022/02/04 09:01:33;;;;;;;8.55;7.10;;;;;;;34.72;50.36;100668.88;5084549;27;66336;-36
2022/02/04 09:04:07;;;;;;;10.90;7.40;;;;;;;34.77;49.61;100668.91;5058084;28;69293;-35
2022/02/04 09:06:44;;;;;;;8.80;7.55;;;;;;;34.83;49.59;100667.94;5059189;28;66298;-35
2022/02/04 09:09:28;;;;;;;6.93;6.32;;;;;;;34.81;49.75;100672.81;5058198;28;69492;-36
2022/02/04 09:12:10;;;;;;;7.30;6.65;;;;;;;34.87;49.98;100669.06;5058777;28;65656;-35
2022/02/04 09:20:10;;;;;;;7.65;6.85;;;;;;;34.96;48.85;100669.44;5068106;28;69351;-36
2022/02/04 09:22:46;;;;;;;13.57;6.80;;;;;;;34.85;49.07;100652.13;5077224;27;65627;-35
2022/02/04 09:25:17;;;;;;;15.27;6.47;;;;;;;34.96;49.14;100658.53;5078903;27;69881;-36
2022/02/04 09:27:47;;;;;;;7.57;6.38;;;;;;;35.01;49.37;100670.31;5080682;27;65544;-35
2022/02/04 09:30:20;;;;;;;7.47;6.83;;;;;;;35.02;48.91;100677.44;5080561;27;69310;-36
2022/02/04 09:32:51;;;;;;;10.07;7.07;;;;;;;35.04;49.53;100679.91;5061211;28;65204;-35
2022/02/04 09:35:24;;;;;;;9.63;6.82;;;;;;;34.94;49.07;100664.25;5079915;27;70482;-35
2022/02/04 09:37:55;;;;;;;7.03;6.43;;;;;;;35.05;48.92;100685.13;5079753;27;66237;-35
2022/02/04 09:40:25;;;;;;;6.93;6.17;;;;;;;35.01;49.45;100686.69;5079565;28;69991;-36
2022/02/04 09:42:56;;;;;;;6.45;5.88;;;;;;;35.04;49.06;100691.63;5080226;28;66343;-35
2022/02/04 09:45:28;;;;;;;8.05;6.05;;;;;;;35.06;49.35;100708.59;5078645;27;70013;-35
2022/02/04 09:48:05;;;;;;;9.75;6.47;;;;;;;35.02;49.52;100710.16;5079647;27;66580;-36
2022/02/04 09:50:42;;;;;;;7.20;6.07;;;;;;;35.07;49.35;100723.84;5079777;27;70810;-36
2022/02/04 10:16:14;;;;;;;11.70;6.22;;;;;;;34.81;49.70;100702.78;5065721;27;65927;-35
2022/02/04 10:18:51;;;;;;;10.48;5.35;;;;;;;35.02;50.02;100737.41;5083755;27;69084;-35
2022/02/04 10:21:28;;;;;;;8.35;5.38;;;;;;;34.81;50.15;100706.31;5079308;28;66398;-35
2022/02/04 10:23:59;;;;;;;9.70;5.60;;;;;;;35.00;49.72;100727.84;5079356;27;70532;-35
2022/02/04 10:26:29;;;;;;;5.75;4.85;;;;;;;34.96;49.86;100732.13;5078892;28;66869;-35
2022/02/04 10:28:59;;;;;;;6.18;4.32;;;;;;;34.96;50.43;100741.13;5081100;28;69533;-35
2022/02/04 10:31:31;;;;;;;5.93;5.43;;;;;;;34.96;50.17;100738.41;5080640;28;64929;-35
2022/02/04 10:34:10;;;;;;;10.32;4.80;;;;;;;34.74;49.91;100713.03;5081262;28;70230;-36
2022/02/04 10:37:01;;;;;;;8.20;4.93;;;;;;;34.66;50.26;100712.38;5082214;28;66516;-35
2022/02/04 10:45:25;;;;;;;13.50;4.80;;;;;;;34.87;50.65;100738.00;5102293;27;69154;-36
2022/02/04 11:04:36;;;;;;;8.93;6.63;;;;;;;34.69;50.06;100754.66;5055949;27;66319;-36
2022/02/04 11:10:05;;;;;;;9.48;5.80;;;;;;;34.65;50.53;100753.50;5078256;28;65968;-36
2022/02/04 11:52:47;;;;;;;16.83;7.93;;;;;;;34.26;51.49;100792.31;5060955;28;70166;-35
2022/02/04 11:55:19;;;;;;;14.68;6.70;;;;;;;34.23;51.78;100800.97;5060867;28;66154;-35
2022/02/04 11:57:57;;;;;;;9.65;6.97;;;;;;;34.04;51.68;100769.56;5076953;27;70477;-35
2022/02/04 12:00:36;;;;;;;9.82;7.07;;;;;;;34.22;51.60;100788.44;5078603;27;65243;-36
2022/02/04 12:03:36;;;;;;;11.20;7.72;;;;;;;34.13;51.91;100795.38;5066165;28;69993;-36
2022/02/04 12:06:06;;;;;;;11.35;7.10;;;;;;;34.17;51.93;100801.97;5060442;28;66108;-35
2022/02/04 12:08:38;;;;;;;7.93;6.75;;;;;;;34.18;51.93;100808.22;5075038;27;70094;-36
2022/02/04 12:11:18;;;;;;;11.35;7.13;;;;;;;34.15;51.71;100806.00;5059655;27;64659;-35
2022/02/04 12:14:10;;;;;;;9.70;6.85;;;;;;;34.07;52.47;100801.78;5078323;27;70228;-35
2022/02/04 12:17:07;;;;;;;7.47;6.72;;;;;;;34.03;52.42;100812.28;5067232;27;66219;-36
2022/02/04 12:19:42;;;;;;;7.75;7.03;;;;;;;34.08;52.54;100811.59;5071274;28;69923;-36
2022/02/04 12:22:13;;;;;;;11.07;7.38;;;;;;;34.08;52.80;100808.06;5060731;28;65233;-36
2022/02/04 12:24:45;;;;;;;12.32;6.95;;;;;;;34.00;52.49;100801.06;5061574;27;69697;-36
2022/02/04 12:27:28;;;;;;;8.35;7.00;;;;;;;34.03;52.57;100806.03;5073180;27;66114;-36
2022/02/04 12:30:01;;;;;;;7.85;6.45;;;;;;;33.96;52.82;100810.78;5067344;28;70233;-34
2022/02/04 12:32:31;;;;;;;9.15;7.22;;;;;;;33.98;52.80;100811.38;5072446;28;66374;-36
2022/02/04 12:35:02;;;;;;;7.50;6.50;;;;;;;33.96;53.00;100816.22;5063513;28;69226;-35
2022/02/04 12:37:34;;;;;;;8.68;7.10;;;;;;;33.95;53.10;100820.84;5066757;28;65376;-35
2022/02/04 12:40:08;;;;;;;13.77;6.95;;;;;;;33.78;52.88;100781.88;5071718;27;69205;-35
2022/02/04 12:42:39;;;;;;;15.25;6.90;;;;;;;33.81;52.83;100806.69;5070667;28;65443;-36
2022/02/04 12:45:14;;;;;;;9.27;6.90;;;;;;;33.92;53.11;100825.97;5072739;27;70270;-36
2022/02/04 12:47:47;;;;;;;8.73;6.72;;;;;;;33.90;53.06;100828.09;5073279;27;65961;-35
2022/02/04 12:50:17;;;;;;;12.52;7.03;;;;;;;33.88;53.03;100824.78;5090259;27;69076;-35
2022/02/04 12:52:50;;;;;;;11.98;6.80;;;;;;;33.86;53.08;100832.38;5087861;27;65745;-35
2022/02/04 12:55:32;;;;;;;9.35;6.70;;;;;;;33.80;53.16;100835.00;5080702;27;69833;-36
2022/02/04 13:03:16;;;;;;;9.57;7.10;;;;;;;33.76;53.22;100844.69;5080725;28;65255;-36
2022/02/04 13:09:01;;;;;;;8.93;6.07;;;;;;;33.76;53.09;100863.72;5079636;28;65632;-37
2022/02/04 13:11:32;;;;;;;7.50;6.40;;;;;;;33.74;53.05;100871.31;5079244;27;69196;-36
2022/02/04 13:14:02;;;;;;;10.00;6.18;;;;;;;33.73;52.69;100877.81;5079921;28;66781;-36
2022/02/04 13:16:33;;;;;;;10.52;6.20;;;;;;;33.70;53.03;100881.03;5086387;27;70049;-36
2022/02/04 13:19:05;;;;;;;6.72;6.13;;;;;;;33.65;53.22;100886.34;5079116;27;66492;-36
2022/02/04 13:21:37;;;;;;;6.80;6.20;;;;;;;33.65;53.10;100896.41;5079674;27;70428;-36
2022/02/04 13:24:08;;;;;;;7.55;6.35;;;;;;;33.65;52.91;100897.22;5079385;28;65764;-36
2022/02/04 13:26:38;;;;;;;6.57;5.97;;;;;;;33.65;53.02;100899.94;5107882;27;69999;-36
2022/02/04 13:29:09;;;;;;;8.95;6.25;;;;;;;33.65;53.20;100908.09;5090972;27;66562;-35
2022/02/04 13:31:41;;;;;;;6.97;6.35;;;;;;;33.63;53.06;100904.81;5089436;27;69810;-35
2022/02/04 13:34:13;;;;;;;6.93;6.25;;;;;;;33.59;53.19;100914.50;5099367;27;65697;-36
2022/02/04 13:36:54;;;;;;;11.20;6.32;;;;;;;33.58;53.06;100923.75;5097122;27;69570;-35
2022/02/04 13:39:35;;;;;;;6.50;5.90;;;;;;;33.55;53.30;100922.31;5115107;27;66248;-35
2022/02/04 13:42:14;;;;;;;6.10;5.53;;;;;;;33.55;53.33;100924.22;5099507;27;70166;-36
2022/02/04 13:47:38;;;;;;;9.25;6.05;;;;;;;33.54;53.17;100920.69;5100008;27;70697;-36
2022/02/04 13:53:13;;;;;;;6.97;6.25;;;;;;;33.42;53.28;100902.66;5057348;28;69738;-36
2022/02/04 13:55:57;;;;;;;7.85;5.55;;;;;;;33.43;53.09;100916.00;5059406;28;65813;-35
2022/02/04 13:58:53;;;;;;;13.23;6.53;;;;;;;33.47;52.88;100932.72;5061797;27;70323;-35
2022/02/04 14:01:35;;;;;;;7.28;6.47;;;;;;;33.23;53.14;100885.66;5090424;27;65969;-36
2022/02/04 14:04:06;;;;;;;;;;;;;;;33.21;53.82;100929.41;5090386;27;70169;-36
2022/02/04 14:06:38;;;;;;;9.13;6.70;;;;;;;33.37;53.39;100936.81;5077370;28;65442;-36
2022/02/04 14:09:16;;;;;;;6.53;5.80;;;;;;;33.41;53.04;100939.91;5079214;27;69539;-36
2022/02/04 14:11:47;;;;;;;8.55;6.45;;;;;;;33.36;53.07;100932.47;5078862;27;65334;-36
2022/02/04 14:14:26;;;;;;;7.20;5.70;;;;;;;33.36;51.93;100937.91;5069603;28;70050;-36
2022/02/04 14:17:03;;;;;;;6.65;5.82;;;;;;;33.36;50.96;100948.78;5072844;28;65838;-36
2022/02/04 14:19:34;;;;;;;7.05;6.03;;;;;;;33.32;52.01;100946.75;5072881;28;70021;-36
2022/02/04 14:22:05;;;;;;;10.23;5.38;;;;;;;33.32;52.40;100947.59;5069574;27;66493;-35
2022/02/04 14:24:35;;;;;;;6.47;5.85;;;;;;;33.30;52.93;100946.19;5077647;27;69948;-36
2022/02/04 14:27:06;;;;;;;6.30;5.70;;;;;;;33.26;52.78;100943.09;5071659;27;65811;-36
2022/02/04 14:29:46;;;;;;;9.43;5.72;;;;;;;33.21;52.71;100934.84;5073676;28;69512;-36
2022/02/04 14:32:23;;;;;;;10.35;5.90;;;;;;;33.26;52.74;100947.69;5067639;28;66130;-36
2022/02/04 14:35:08;;;;;;;8.63;6.28;;;;;;;33.23;52.82;100950.88;5078607;28;68102;-36
2022/02/04 14:52:01;;;;;;;9.90;5.28;;;;;;;33.15;53.22;100962.94;5072031;27;70007;-36
2022/02/04 15:00:32;;;;;;;7.55;5.10;;;;;;;33.11;53.23;100956.31;5076956;28;66447;-37
2022/02/04 15:05:45;;;;;;;6.43;5.78;;;;;;;33.07;53.13;100955.97;5075766;27;66107;-45
2022/02/04 15:08:20;;;;;;;8.60;5.97;;;;;;;33.06;53.60;100957.00;5075901;28;69769;-35
2022/02/04 15:10:51;;;;;;;6.95;5.53;;;;;;;33.05;53.39;100958.06;5072035;28;65145;-35
2022/02/04 15:13:24;;;;;;;8.68;5.03;;;;;;;33.04;53.50;100944.72;5072266;27;70096;-36
2022/02/04 15:15:54;;;;;;;10.20;5.63;;;;;;;33.05;53.55;100941.78;5071845;28;65546;-34
2022/02/04 15:18:25;;;;;;;9.90;5.43;;;;;;;33.04;53.45;100939.28;5080597;27;70121;-35
2022/02/04 15:21:00;;;;;;;11.13;5.75;;;;;;;33.03;53.55;100943.06;5092848;27;65405;-36
2022/02/04 15:23:32;;;;;;;6.93;5.40;;;;;;;32.97;53.30;100931.22;5063913;28;68425;-35
2022/02/04 15:26:04;;;;;;;7.18;5.72;;;;;;;32.99;53.42;100941.81;5080529;27;67016;-39
2022/02/04 15:28:41;;;;;;;;;;;;;;;32.77;53.88;100941.56;5080662;28;69784;-37
2022/02/04 15:33:54;;;;;;;7.65;5.45;;;;;;;32.96;53.88;100937.72;5079454;28;69974;-38
2022/02/04 15:36:28;;;;;;;6.22;5.63;;;;;;;32.94;53.73;100946.09;5064375;28;66643;-37
2022/02/04 15:39:01;;;;;;;6.72;5.70;;;;;;;32.69;53.56;100904.69;5069677;28;69399;-36
2022/02/04 15:41:32;;;;;;;5.85;5.32;;;;;;;32.94;53.68;100945.25;5078330;28;66095;-36
2022/02/04 15:44:11;;;;;;;5.78;4.80;;;;;;;32.92;53.94;100948.19;5077021;27;70259;-36
2022/02/04 15:47:04;;;;;;;9.75;5.65;;;;;;;32.92;53.74;100950.91;5082087;28;65146;-36
2022/02/04 15:52:53;;;;;;;5.40;5.00;;;;;;;32.91;53.97;100959.31;5040528;28;66312;-36
2022/02/04 15:55:55;;;;;;;5.55;4.85;;;;;;;32.87;53.96;100945.34;5069446;28;70664;-36
2022/02/04 16:01:13;;;;;;;6.90;5.63;;;;;;;32.83;54.16;100933.31;5071096;27;70711;-36
2022/02/04 16:03:58;;;;;;;4.85;4.38;;;;;;;32.86;54.06;100948.31;5077593;28;66454;-45
2022/02/04 16:06:30;;;;;;;5.60;5.10;;;;;;;32.84;53.67;100951.25;5078926;28;69834;-35
2022/02/04 16:09:01;;;;;;;8.18;5.22;;;;;;;32.85;54.06;100952.09;5078214;28;67600;-36
2022/02/04 16:14:20;;;;;;;7.35;5.47;;;;;;;32.83;54.16;100946.88;5078772;28;64730;-35
2022/02/04 16:17:37;;;;;;;6.13;5.38;;;;;;;32.82;54.27;100952.53;5072897;28;70039;-36
2022/02/04 16:19:46;;;;;;;6.13;5.63;;;;;;;32.80;54.11;100950.06;5085217;27;66367;-36
2022/02/04 16:23:08;;;;;;;5.65;5.07;;;;;;;32.77;54.25;100944.28;5078490;27;70147;-36
2022/02/04 16:30:58;;;;;;;5.53;5.03;;;;;;;32.81;54.12;100962.59;5075213;27;66071;-36
2022/02/04 16:33:30;;;;;;;5.88;5.28;;;;;;;32.73;54.21;100949.31;5078674;28;70621;-35
2022/02/04 16:36:04;;;;;;;5.47;4.93;;;;;;;32.74;54.13;100956.44;5075333;27;66236;-35
2022/02/04 16:38:35;;;;;;;5.63;5.13;;;;;;;32.74;54.42;100950.19;5079840;28;70219;-35
2022/02/04 16:41:08;;;;;;;6.30;5.10;;;;;;;32.77;54.05;100961.41;5077565;27;66117;-35
2022/02/04 16:43:40;;;;;;;6.10;5.50;;;;;;;32.76;54.23;100958.91;5071303;28;70062;-35
2022/02/04 16:46:10;;;;;;;4.88;4.57;;;;;;;32.72;54.09;100959.38;5071275;28;65896;-35
2022/02/04 16:48:41;;;;;;;5.18;4.78;;;;;;;32.74;54.17;100958.34;5074825;27;69998;-37
2022/02/04 16:51:13;;;;;;;9.02;5.20;;;;;;;32.74;54.37;100964.59;5079613;28;66493;-37
2022/02/04 16:53:44;;;;;;;7.05;4.55;;;;;;;32.72;54.33;100964.81;5094195;27;69147;-37
2022/02/04 16:56:15;;;;;;;6.93;5.15;;;;;;;32.71;54.34;100967.78;5096035;27;65569;-36
2022/02/04 16:58:47;;;;;;;5.25;4.85;;;;;;;32.71;54.40;100970.47;5079833;28;68592;-36
2022/02/04 17:01:20;;;;;;;5.60;4.88;;;;;;;32.71;53.86;100962.34;5080112;27;66751;-36
2022/02/04 17:03:51;;;;;;;7.60;5.18;;;;;;;32.71;54.20;100975.91;5076203;28;70048;-36
2022/02/04 17:06:26;;;;;;;5.53;4.57;;;;;;;32.68;54.38;100962.78;5078460;28;65368;-36
2022/02/04 17:09:09;;;;;;;6.93;4.97;;;;;;;32.69;53.98;100975.31;5079332;28;69203;-37
2022/02/04 17:11:43;;;;;;;5.47;4.97;;;;;;;32.69;54.16;100975.31;5079003;28;66426;-37
2022/02/04 17:14:16;;;;;;;4.63;4.22;;;;;;;32.53;54.10;100952.34;5057197;28;70356;-36
2022/02/04 17:16:47;;;;;;;5.60;4.68;;;;;;;32.67;53.92;100975.53;5055585;28;65991;-37
2022/02/04 17:19:23;;;;;;;4.82;4.43;;;;;;;32.65;54.09;100983.09;5073003;28;69142;-37
2022/02/04 17:21:59;;;;;;;5.20;4.70;;;;;;;32.56;54.08;100970.88;5073697;28;64938;-36
2022/02/04 17:24:31;;;;;;;4.63;3.90;;;;;;;32.65;54.14;100979.53;5070236;28;70357;-36
2022/02/04 17:27:02;;;;;;;4.78;4.30;;;;;;;32.64;54.38;100967.03;5084864;27;65637;-36
2022/02/04 17:29:33;;;;;;;6.55;4.85;;;;;;;32.62;54.32;100969.13;5072404;28;69722;-36
2022/02/04 17:32:04;;;;;;;4.50;4.07;;;;;;;32.63;54.19;100970.81;5075273;28;66168;-39
2022/02/04 17:34:36;;;;;;;4.97;4.57;;;;;;;32.60;54.41;100966.66;5071312;27;69011;-36
2022/02/04 17:37:07;;;;;;;4.50;4.10;;;;;;;32.45;54.23;100945.28;5071397;28;65997;-36
2022/02/04 17:39:40;;;;;;;4.75;4.40;;;;;;;32.59;54.39;100975.84;5066049;28;69643;-36
2022/02/04 17:42:11;;;;;;;4.82;4.43;;;;;;;32.58;54.29;100965.22;5086406;27;65696;-36
2022/02/04 17:44:43;;;;;;;4.25;3.95;;;;;;;32.53;54.13;100959.66;5066883;28;69983;-35
2022/02/04 17:47:16;;;;;;;4.22;3.85;;;;;;;32.56;53.88;100961.91;5067047;28;66151;-36
2022/02/04 17:49:59;;;;;;;4.50;4.20;;;;;;;32.54;54.08;100955.88;5071853;28;69385;-36
2022/02/04 17:52:42;;;;;;;4.22;3.88;;;;;;;32.56;53.90;100964.63;5074452;28;65604;-36
2022/02/04 17:55:21;;;;;;;4.20;3.78;;;;;;;32.55;53.91;100971.13;5070246;28;70270;-35
2022/02/04 17:57:55;;;;;;;4.22;3.92;;;;;;;32.54;53.98;100962.16;5071064;27;66227;-36